Unlu-5 — TCON5 — position and weather

sailwx.info

Track history (hours):
 
Tides and Currents Weather Stations Pressure Air Temp Water Temp Dewpoint Dewpoint Depression Visibility Wind Speed Wind Dir Waves Ship Positions

Unlu-5

Last reported at 2015-Jun-29 06:24 UTC. Time now 2015-Jul-01 21:11 UTC.
Position N 36°31' E 015°37'.

Length 99 m; draft 6.2 m.

Type: Cargo ship. MMSI: 271000854.

Date/timePositionNaut miles runAvg speedWind from/ knotsBaromVisibWave heightAir tempDewpointWater temp
2015-Jun-29 06:24N 36°31' E 015°37'8 7.8
2015-Jun-29 05:26N 36°31' E 015°28'8 7.6
2015-Jun-29 04:24N 36°32' E 015°18'8 7.4
2015-Jun-29 03:19N 36°32' E 015°08'6 7.5
2015-Jun-29 02:32N 36°32' E 015°01'8 7.6
2015-Jun-29 01:33N 36°33' E 014°51'8 8.0
2015-Jun-29 00:33N 36°35' E 014°42'8 7.9
2015-Jun-28 23:33N 36°37' E 014°32'8 7.9
2015-Jun-28 22:33N 36°39' E 014°23'7 7.5
2015-Jun-28 21:33N 36°41' E 014°13'7 7.3
2015-Jun-28 20:33N 36°42' E 014°05'8 7.5
2015-Jun-28 19:33N 36°44' E 013°55'8 8.0
2015-Jun-28 18:33N 36°46' E 013°46'8 8.0
2015-Jun-28 17:33N 36°48' E 013°36'8 7.9
2015-Jun-28 16:33N 36°50' E 013°27'8 7.8
2015-Jun-28 15:33N 36°53' E 013°18'8 8.0
2015-Jun-28 14:33N 36°55' E 013°08'8 8.1
2015-Jun-28 13:33N 36°57' E 012°58'8 8.2
2015-Jun-28 12:33N 36°60' E 012°48'8 8.2
2015-Jun-28 11:33N 37°01' E 012°38'8 7.8
2015-Jun-28 10:33N 37°03' E 012°29'8 7.8
2015-Jun-28 09:33N 37°05' E 012°19'44 8.0
2015-Jun-28 04:03N 37°17' E 011°26'56 6.4
2015-Jun-27 19:18N 36°50' E 010°24'4 6.0
2015-Jun-27 18:33N 36°48' E 010°19'2 0.0
2015-Jun-25 15:28N 36°49' E 010°17'0 0.0
2015-Jun-25 14:31N 36°49' E 010°17'3 0.8
2015-Jun-25 10:14N 36°48' E 010°22'3 5.0
2015-Jun-25 09:33N 36°47' E 010°26'0 0.0
2015-Jun-24 18:32N 36°47' E 010°26'0 0.0
2015-Jun-24 17:14N 36°47' E 010°26'0 0.6
2015-Jun-24 16:33N 36°47' E 010°26'7 0.3
2015-Jun-23 19:16N 36°49' E 010°17'0 0.0
2015-Jun-23 18:49N 36°49' E 010°17'  
Track history (hours):
 
Tides and Currents Weather Stations Pressure Air Temp Water Temp Dewpoint Dewpoint Depression Visibility Wind Speed Wind Dir Waves Ship Positions

Unlu-5

Last reported at 2015-Jun-29 06:24 UTC. Time now 2015-Jul-01 21:11 UTC.
Position N 36°31' E 015°37'.

Length 99 m; draft 6.2 m.

Type: Cargo ship. MMSI: 271000854.

Date/timePositionNaut miles runAvg speedWind from/ knotsBaromVisibWave heightAir tempDewpointWater temp
2015-Jun-29 06:24N 36°31' E 015°37'8 7.8
2015-Jun-29 05:26N 36°31' E 015°28'8 7.6
2015-Jun-29 04:24N 36°32' E 015°18'8 7.4
2015-Jun-29 03:19N 36°32' E 015°08'6 7.5
2015-Jun-29 02:32N 36°32' E 015°01'8 7.6
2015-Jun-29 01:33N 36°33' E 014°51'8 8.0
2015-Jun-29 00:33N 36°35' E 014°42'8 7.9
2015-Jun-28 23:33N 36°37' E 014°32'8 7.9
2015-Jun-28 22:33N 36°39' E 014°23'7 7.5
2015-Jun-28 21:33N 36°41' E 014°13'7 7.3
2015-Jun-28 20:33N 36°42' E 014°05'8 7.5
2015-Jun-28 19:33N 36°44' E 013°55'8 8.0
2015-Jun-28 18:33N 36°46' E 013°46'8 8.0
2015-Jun-28 17:33N 36°48' E 013°36'8 7.9
2015-Jun-28 16:33N 36°50' E 013°27'8 7.8
2015-Jun-28 15:33N 36°53' E 013°18'8 8.0
2015-Jun-28 14:33N 36°55' E 013°08'8 8.1
2015-Jun-28 13:33N 36°57' E 012°58'8 8.2
2015-Jun-28 12:33N 36°60' E 012°48'8 8.2
2015-Jun-28 11:33N 37°01' E 012°38'8 7.8
2015-Jun-28 10:33N 37°03' E 012°29'8 7.8
2015-Jun-28 09:33N 37°05' E 012°19'44 8.0
2015-Jun-28 04:03N 37°17' E 011°26'56 6.4
2015-Jun-27 19:18N 36°50' E 010°24'4 6.0
2015-Jun-27 18:33N 36°48' E 010°19'2 0.0
2015-Jun-25 15:28N 36°49' E 010°17'0 0.0
2015-Jun-25 14:31N 36°49' E 010°17'3 0.8
2015-Jun-25 10:14N 36°48' E 010°22'3 5.0
2015-Jun-25 09:33N 36°47' E 010°26'0 0.0
2015-Jun-24 18:32N 36°47' E 010°26'0 0.0
2015-Jun-24 17:14N 36°47' E 010°26'0 0.6
2015-Jun-24 16:33N 36°47' E 010°26'7 0.3
2015-Jun-23 19:16N 36°49' E 010°17'0 0.0
2015-Jun-23 18:49N 36°49' E 010°17'  

Dump ship's entire track history